Time;durP1;ratioP1;P1;durP2;ratioP2;P2;SDS_P1;SDS_P2;PMS_P1;PMS_P2;Temp;Humidity;BMP_temperature;BMP_pressure;BME280_temperature;BME280_humidity;BME280_pressure;Samples;Min_cycle;Max_cycle;Signal;HPM_P1;HPM_P2
2022/09/30 00:00:22;965093.00;3.22;1670.74;71056.00;0.24;123.59;;;;;13.30;1.00;;;;;;2293100;60;1072;-88
2022/09/30 00:02:49;667461.00;2.22;1150.86;69515.00;0.23;120.92;;;;;13.00;1.00;;;;;;2293085;60;1335;-89
2022/09/30 00:05:16;1093116.00;3.64;1898.12;71504.00;0.24;124.36;;;;;13.00;1.00;;;;;;2293016;60;1351;-87
2022/09/30 00:07:43;958230.00;3.19;1658.63;77762.00;0.26;135.17;;;;;13.00;1.00;;;;;;2293059;60;1987;-86
2022/09/30 00:10:12;792280.00;2.64;1367.66;76111.00;0.25;132.32;;;;;13.10;1.00;;;;;;2293036;60;1133;-85
2022/09/30 00:12:39;737513.00;2.46;1272.35;65261.00;0.22;113.57;;;;;13.20;1.00;;;;;;2293065;60;1334;-86
2022/09/30 00:15:07;783377.00;2.61;1352.15;59990.00;0.20;104.46;;;;;13.20;1.00;;;;;;2292834;60;1455;-87
2022/09/30 00:17:35;878747.00;2.93;1518.82;67748.00;0.23;117.87;;;;;13.20;1.00;;;;;;2292927;60;999;-89
2022/09/30 00:20:02;873048.00;2.91;1508.83;57262.00;0.19;99.74;;;;;13.10;1.00;;;;;;2293056;60;1083;-88
2022/09/30 00:22:29;921428.00;3.07;1593.79;71409.00;0.24;124.20;;;;;13.20;1.00;;;;;;2292813;60;1308;-87
2022/09/30 00:24:57;1311437.00;4.37;2293.05;137703.00;0.46;238.61;;;;;13.50;1.00;;;;;;2292965;60;990;-86
2022/09/30 00:27:24;1129387.00;3.76;1963.06;129533.00;0.43;224.52;;;;;13.50;1.00;;;;;;2292888;60;1480;-87
2022/09/30 00:29:51;835404.00;2.78;1442.94;94124.00;0.31;163.43;;;;;13.10;1.00;;;;;;2292919;60;1997;-86
2022/09/30 00:32:18;774593.00;2.58;1336.85;65256.00;0.22;113.56;;;;;13.10;1.00;;;;;;2292947;60;1303;-86
2022/09/30 00:34:46;720976.00;2.40;1243.63;67561.00;0.23;117.55;;;;;13.00;1.00;;;;;;2292883;60;1046;-86
2022/09/30 00:37:15;905095.00;3.02;1565.07;58805.00;0.20;102.41;;;;;13.20;1.00;;;;;;2292923;60;1071;-87
2022/09/30 00:39:42;806352.00;2.69;1392.20;67894.00;0.23;118.12;;;;;13.20;1.00;;;;;;2292980;60;2321;-87
2022/09/30 00:42:14;949813.00;3.17;1643.78;74559.00;0.25;129.64;;;;;13.00;1.00;;;;;;2292984;60;1040;-86
2022/09/30 00:44:53;850426.00;2.83;1469.21;44482.00;0.15;77.64;;;;;13.20;1.00;;;;;;2293015;60;1072;-87
2022/09/30 00:47:40;1142431.00;3.81;1986.47;105038.00;0.35;182.27;;;;;12.90;1.00;;;;;;2292891;60;1037;-87
2022/09/30 00:50:29;1272252.00;4.24;2221.41;20502.00;0.07;36.14;;;;;12.90;1.00;;;;;;2292779;60;2021;-88
2022/09/30 00:53:05;830799.00;2.77;1434.89;0.00;0.00;0.62;;;;;13.00;1.00;;;;;;2292893;60;1378;-88
2022/09/30 00:55:42;652493.00;2.17;1124.95;147.00;0.00;0.87;;;;;13.10;1.00;;;;;;2292952;60;1033;-90
2022/09/30 00:58:17;837285.00;2.79;1446.23;0.00;0.00;0.62;;;;;13.10;1.00;;;;;;2292817;60;1084;-87
2022/09/30 01:00:44;796402.00;2.65;1374.85;0.00;0.00;0.62;;;;;13.20;1.00;;;;;;2292714;60;1434;-87
2022/09/30 01:03:11;807031.00;2.69;1393.39;0.00;0.00;0.62;;;;;13.00;1.00;;;;;;2292856;60;1467;-86
2022/09/30 01:05:39;957751.00;3.19;1657.78;0.00;0.00;0.62;;;;;13.10;1.00;;;;;;2292882;60;943;-87
2022/09/30 01:08:10;119434784.00;398.12;69014632.00;31436.00;0.10;55.07;;;;;13.30;1.00;;;;;;2292853;60;1909;-88
2022/09/30 01:10:37;706017.00;2.35;1217.67;60027.00;0.20;104.52;;;;;13.50;1.00;;;;;;2292828;60;1025;-87
2022/09/30 01:13:06;704066.00;2.35;1214.29;0.00;0.00;0.62;;;;;13.50;1.00;;;;;;2292861;60;1390;-86
2022/09/30 01:15:56;658622.00;2.20;1135.56;0.00;0.00;0.62;;;;;13.10;1.00;;;;;;2292778;60;1057;-87
2022/09/30 01:18:34;548872.00;1.83;946.01;0.00;0.00;0.62;;;;;13.00;1.00;;;;;;2292800;60;1139;-87
2022/09/30 01:21:23;683666.00;2.28;1178.92;0.00;0.00;0.62;;;;;13.10;1.00;;;;;;2292598;60;1470;-87
2022/09/30 01:24:39;690698.00;2.30;1191.11;0.00;0.00;0.62;;;;;13.10;1.00;;;;;;2292837;60;1420;-85
2022/09/30 01:27:18;767810.00;2.56;1325.04;105510.00;0.35;183.08;;;;;13.10;1.00;;;;;;2281313;60;1538;-87
2022/09/30 01:30:07;584182.00;1.95;1006.92;0.00;0.00;0.62;;;;;13.10;1.00;;;;;;2292714;60;1988;-88
2022/09/30 01:32:54;415060.00;1.38;715.70;0.00;0.00;0.62;;;;;13.30;1.00;;;;;;2292799;60;1429;-87
2022/09/30 01:35:30;481508.00;1.61;829.99;0.00;0.00;0.62;;;;;13.20;1.00;;;;;;2292824;60;1089;-86
2022/09/30 01:38:08;525381.00;1.75;905.53;0.00;0.00;0.62;;;;;13.20;1.00;;;;;;2292883;60;953;-86
2022/09/30 01:40:46;575889.00;1.92;992.61;0.00;0.00;0.62;;;;;13.00;1.00;;;;;;2292712;60;927;-88
2022/09/30 01:43:24;533036.00;1.78;918.72;0.00;0.00;0.62;;;;;12.80;1.00;;;;;;2292581;60;1386;-87
2022/09/30 01:45:58;688272.00;2.29;1186.91;0.00;0.00;0.62;;;;;12.80;1.00;;;;;;2292796;60;1058;-88
2022/09/30 01:48:38;575115.00;1.92;991.27;0.00;0.00;0.62;;;;;13.00;1.00;;;;;;2292451;60;1930;-87
2022/09/30 01:51:10;588822.00;1.96;1014.92;0.00;0.00;0.62;;;;;12.90;1.00;;;;;;2292771;60;1015;-86
2022/09/30 01:53:42;611628.00;2.04;1054.30;0.00;0.00;0.62;;;;;12.90;1.00;;;;;;2292724;60;1376;-87
2022/09/30 01:56:17;670592.00;2.24;1156.28;0.00;0.00;0.62;;;;;12.90;1.00;;;;;;2292717;60;1447;-88
2022/09/30 01:58:52;696314.00;2.32;1200.85;0.00;0.00;0.62;;;;;13.00;1.00;;;;;;2292684;60;1020;-87
2022/09/30 02:01:25;822889.00;2.74;1421.07;0.00;0.00;0.62;;;;;13.20;1.00;;;;;;2292821;60;1017;-88
2022/09/30 02:03:57;834911.00;2.78;1442.08;0.00;0.00;0.62;;;;;12.90;1.00;;;;;;2292801;60;1639;-87
2022/09/30 02:06:28;545634.00;1.82;940.43;0.00;0.00;0.62;;;;;12.80;1.00;;;;;;2292658;60;955;-88
2022/09/30 02:09:02;609116.00;2.03;1049.96;0.00;0.00;0.62;;;;;12.80;1.00;;;;;;2292575;60;1990;-88
2022/09/30 02:11:32;491755.00;1.64;847.63;0.00;0.00;0.62;;;;;12.60;1.00;;;;;;2292769;60;895;-88
2022/09/30 02:14:05;482727.00;1.61;832.09;0.00;0.00;0.62;;;;;12.80;1.00;;;;;;2292665;60;1330;-86
2022/09/30 02:16:38;666795.00;2.22;1149.70;0.00;0.00;0.62;;;;;12.80;1.00;;;;;;2292580;60;1734;-89
2022/09/30 02:19:15;649034.00;2.16;1118.96;0.00;0.00;0.62;;;;;12.90;1.00;;;;;;2292627;60;1066;-86
2022/09/30 02:21:48;820856.00;2.74;1417.52;0.00;0.00;0.62;;;;;12.80;1.00;;;;;;2292698;60;913;-87
2022/09/30 02:24:20;580739.00;1.94;1000.97;52557.00;0.18;91.61;;;;;12.80;1.00;;;;;;2292675;60;1468;-88
2022/09/30 02:26:49;814755.00;2.72;1406.87;24719.00;0.08;43.44;;;;;12.70;1.00;;;;;;2292689;60;1052;-86
2022/09/30 02:29:21;689234.00;2.30;1188.57;0.00;0.00;0.62;;;;;12.70;1.00;;;;;;2292566;60;1999;-87
2022/09/30 02:31:52;809173.00;2.70;1397.13;0.00;0.00;0.62;;;;;13.00;1.00;;;;;;2292387;60;1430;-86
2022/09/30 02:34:25;665993.00;2.22;1148.32;0.00;0.00;0.62;;;;;13.00;1.00;;;;;;2292618;60;1460;-87
2022/09/30 02:36:58;440559.00;1.47;759.54;0.00;0.00;0.62;;;;;13.00;1.00;;;;;;2292534;60;1085;-86
2022/09/30 02:39:33;588312.00;1.96;1014.04;0.00;0.00;0.62;;;;;12.90;1.00;;;;;;2292609;60;1027;-86
2022/09/30 02:42:07;753927.00;2.51;1300.89;0.00;0.00;0.62;;;;;12.90;1.00;;;;;;2292638;60;964;-86
2022/09/30 02:44:35;733076.00;2.44;1264.64;0.00;0.00;0.62;;;;;12.90;1.00;;;;;;2292478;60;1643;-87
2022/09/30 02:47:11;879834.00;2.93;1520.73;0.00;0.00;0.62;;;;;12.90;1.00;;;;;;2292488;60;1289;-86
2022/09/30 02:49:48;671578.00;2.24;1157.99;0.00;0.00;0.62;;;;;12.80;1.00;;;;;;2292382;60;1982;-88
2022/09/30 02:52:24;925796.00;3.09;1601.47;0.00;0.00;0.62;;;;;12.90;1.00;;;;;;2308321;39;3757;-85
2022/09/30 02:55:02;671212.00;2.24;1157.35;40717.00;0.14;71.13;;;;;13.00;1.00;;;;;;2284445;60;1023;-87
2022/09/30 02:57:39;674320.00;2.25;1162.73;0.00;0.00;0.62;;;;;12.90;1.00;;;;;;2284382;60;1219;-87
2022/09/30 03:00:08;588934.00;1.96;1015.12;0.00;0.00;0.62;;;;;12.90;1.00;;;;;;2285064;60;1045;-87
2022/09/30 03:02:35;655744.00;2.19;1130.58;0.00;0.00;0.62;;;;;12.90;1.00;;;;;;2284925;60;1359;-86
2022/09/30 03:05:04;835611.00;2.79;1443.30;0.00;0.00;0.62;;;;;12.90;1.00;;;;;;2285029;60;974;-88
2022/09/30 03:07:31;1114678.00;3.72;1936.69;150300.00;0.50;260.32;;;;;12.90;1.00;;;;;;2284911;60;957;-87
2022/09/30 03:09:58;902707.00;3.01;1560.87;51047.00;0.17;89.00;;;;;12.90;1.00;;;;;;2284934;60;1986;-88
2022/09/30 03:12:53;715878.00;2.39;1234.78;38693.00;0.13;67.63;;;;;12.90;1.00;;;;;;2284743;60;1244;-87
2022/09/30 03:15:38;661345.00;2.20;1140.27;0.00;0.00;0.62;;;;;12.90;1.00;;;;;;2284860;60;1129;-86
2022/09/30 03:18:31;476394.00;1.59;821.19;0.00;0.00;0.62;;;;;12.90;1.00;;;;;;2284880;60;1151;-88
2022/09/30 03:21:08;553929.00;1.85;954.73;0.00;0.00;0.62;;;;;12.80;1.00;;;;;;2284904;60;1040;-88
2022/09/30 03:24:11;594710.00;1.98;1025.09;0.00;0.00;0.62;;;;;12.80;1.00;;;;;;2284895;60;1483;-87
2022/09/30 03:26:52;405970.00;1.35;700.07;0.00;0.00;0.62;;;;;12.90;1.00;;;;;;2284826;60;1053;-86
2022/09/30 03:29:28;751282.00;2.50;1296.29;0.00;0.00;0.62;;;;;12.90;1.00;;;;;;2284810;60;1911;-87
2022/09/30 03:32:14;453237.00;1.51;781.35;0.00;0.00;0.62;;;;;12.80;1.00;;;;;;2284867;60;1016;-88
2022/09/30 03:34:59;624037.00;2.08;1075.74;0.00;0.00;0.62;;;;;13.00;1.00;;;;;;2284931;60;1432;-86
2022/09/30 03:37:33;538367.00;1.79;927.91;0.00;0.00;0.62;;;;;13.00;1.00;;;;;;2284889;60;997;-87
2022/09/30 03:40:09;829218.00;2.76;1432.13;0.00;0.00;0.62;;;;;13.00;1.00;;;;;;2284885;60;1743;-86
2022/09/30 03:42:41;712804.00;2.38;1229.45;9879.00;0.03;17.74;;;;;13.00;1.00;;;;;;2284845;60;1299;-86
2022/09/30 03:45:14;640844.00;2.14;1104.80;0.00;0.00;0.62;;;;;12.90;1.00;;;;;;2284864;60;1086;-87
2022/09/30 03:47:49;460942.00;1.54;794.61;0.00;0.00;0.62;;;;;12.70;1.00;;;;;;2284994;60;1117;-87
2022/09/30 03:50:20;457187.00;1.52;788.15;0.00;0.00;0.62;;;;;12.60;1.00;;;;;;2284907;60;1915;-87
2022/09/30 03:52:50;688086.00;2.29;1186.58;0.00;0.00;0.62;;;;;12.70;1.00;;;;;;2284896;60;1237;-87
2022/09/30 03:55:18;691925.00;2.31;1193.24;0.00;0.00;0.62;;;;;12.70;1.00;;;;;;2284874;60;987;-86
2022/09/30 03:57:45;453483.00;1.51;781.77;0.00;0.00;0.62;;;;;12.50;1.00;;;;;;2284939;60;1043;-87
2022/09/30 04:00:13;486238.00;1.62;838.13;0.00;0.00;0.62;;;;;12.60;1.00;;;;;;2284692;60;1094;-86
2022/09/30 04:02:41;750799.00;2.50;1295.45;54268.00;0.18;94.57;;;;;12.60;1.00;;;;;;2284872;60;1252;-87
2022/09/30 04:05:08;793010.00;2.64;1368.94;67761.00;0.23;117.89;;;;;12.60;1.00;;;;;;2284745;60;940;-86
2022/09/30 04:07:35;1016896.00;3.39;1762.42;37521.00;0.13;65.60;;;;;12.60;1.00;;;;;;2284862;60;1005;-88
2022/09/30 04:10:05;594245.00;1.98;1024.28;0.00;0.00;0.62;;;;;12.80;1.00;;;;;;2284586;60;1911;-88
2022/09/30 04:12:32;548891.00;1.83;946.05;0.00;0.00;0.62;;;;;12.60;1.00;;;;;;2284798;60;1433;-88
2022/09/30 04:14:59;715575.00;2.39;1234.26;0.00;0.00;0.62;;;;;12.60;1.00;;;;;;2284753;60;1957;-87
2022/09/30 04:17:26;661110.00;2.20;1139.86;0.00;0.00;0.62;;;;;12.60;1.00;;;;;;2284897;60;1150;-87
2022/09/30 04:19:53;685787.00;2.29;1182.60;0.00;0.00;0.62;;;;;12.70;1.00;;;;;;2284769;60;1105;-88
2022/09/30 04:22:20;753303.00;2.51;1299.80;0.00;0.00;0.62;;;;;12.70;1.00;;;;;;2284698;60;1699;-86
2022/09/30 04:24:47;490249.00;1.63;845.04;0.00;0.00;0.62;;;;;12.80;1.00;;;;;;2284627;60;1098;-86
2022/09/30 04:27:15;773793.00;2.58;1335.46;47228.00;0.16;82.39;;;;;12.70;1.00;;;;;;2284820;60;1365;-87
2022/09/30 04:29:42;878938.00;2.93;1519.16;60621.00;0.20;105.55;;;;;12.70;1.00;;;;;;2284704;60;1987;-88
2022/09/30 04:32:09;611641.00;2.04;1054.32;0.00;0.00;0.62;;;;;12.50;1.00;;;;;;2284218;60;1066;-86
2022/09/30 04:34:36;912690.00;3.04;1578.42;14268.00;0.05;25.34;;;;;12.40;1.00;;;;;;2284751;60;1288;-85
2022/09/30 04:37:03;723959.00;2.41;1248.81;0.00;0.00;0.62;;;;;12.30;1.00;;;;;;2284681;60;1085;-86
2022/09/30 04:39:30;738488.00;2.46;1274.05;0.00;0.00;0.62;;;;;12.60;1.00;;;;;;2284707;60;1141;-87
2022/09/30 04:41:57;568053.00;1.89;979.09;0.00;0.00;0.62;;;;;12.60;1.00;;;;;;2284172;60;1060;-87
2022/09/30 04:44:26;837139.00;2.79;1445.97;78949.00;0.26;137.22;;;;;12.50;1.00;;;;;;2284755;60;1351;-87
2022/09/30 04:46:53;724247.00;2.41;1249.31;0.00;0.00;0.62;;;;;12.60;1.00;;;;;;2284628;60;1099;-87
2022/09/30 04:49:20;642317.00;2.14;1107.35;0.00;0.00;0.62;;;;;12.50;1.00;;;;;;2284688;60;1985;-88
2022/09/30 04:51:47;627252.00;2.09;1081.30;0.00;0.00;0.62;;;;;12.50;1.00;;;;;;2284707;60;1268;-87
2022/09/30 04:54:15;504012.00;1.68;868.73;0.00;0.00;0.62;;;;;12.60;1.00;;;;;;2284721;60;1324;-87
2022/09/30 04:56:42;545341.00;1.82;939.93;0.00;0.00;0.62;;;;;12.80;1.00;;;;;;2284745;60;1104;-86
2022/09/30 04:59:09;676214.00;2.25;1166.01;0.00;0.00;0.62;;;;;12.60;1.00;;;;;;2284812;60;995;-86
2022/09/30 05:01:39;730273.00;2.43;1259.78;0.00;0.00;0.62;;;;;12.60;1.00;;;;;;2284411;60;951;-88
2022/09/30 05:04:07;651971.00;2.17;1124.05;0.00;0.00;0.62;;;;;12.80;1.00;;;;;;2284638;60;1265;-87
2022/09/30 05:06:34;722493.00;2.41;1246.27;0.00;0.00;0.62;;;;;13.20;1.00;;;;;;2284636;60;1491;-88
2022/09/30 05:09:00;732501.00;2.44;1263.65;102596.00;0.34;178.05;;;;;13.40;1.00;;;;;;2284717;60;1065;-88
2022/09/30 05:11:28;591794.00;1.97;1020.05;60713.00;0.20;105.71;;;;;13.40;1.00;;;;;;2284618;60;2016;-88
2022/09/30 05:13:55;463580.00;1.55;799.14;0.00;0.00;0.62;;;;;13.50;1.40;;;;;;2284614;60;1301;-86
2022/09/30 05:16:22;665745.00;2.22;1147.89;0.00;0.00;0.62;;;;;13.70;1.00;;;;;;2284746;60;946;-87
2022/09/30 05:18:50;638376.00;2.13;1100.53;0.00;0.00;0.62;;;;;13.90;1.70;;;;;;2284633;60;1081;-86
2022/09/30 05:21:19;667613.00;2.23;1151.12;0.00;0.00;0.62;;;;;14.00;1.00;;;;;;2284529;60;1106;-88
2022/09/30 05:23:46;615159.00;2.05;1060.40;15687.00;0.05;27.80;;;;;13.80;1.00;;;;;;2284549;60;1371;-87
2022/09/30 05:26:14;599985.00;2.00;1034.19;0.00;0.00;0.62;;;;;14.00;1.00;;;;;;2284457;60;1010;-87
2022/09/30 05:28:41;612386.00;2.04;1055.61;0.00;0.00;0.62;;;;;14.30;1.00;;;;;;2284614;60;1159;-88
2022/09/30 05:31:08;436124.00;1.45;751.92;0.00;0.00;0.62;;;;;14.60;1.00;;;;;;2284475;60;1987;-88
2022/09/30 05:33:35;622598.00;2.08;1073.26;0.00;0.00;0.62;;;;;14.50;1.00;;;;;;2284616;60;1380;-87
2022/09/30 05:36:06;550028.00;1.83;948.01;0.00;0.00;0.62;;;;;14.60;1.00;;;;;;2284463;60;1116;-90
2022/09/30 05:38:34;881176.00;2.94;1523.08;96450.00;0.32;167.44;;;;;14.60;1.00;;;;;;2284510;60;1442;-88
2022/09/30 05:41:07;715439.00;2.38;1234.02;0.00;0.00;0.62;;;;;14.40;1.00;;;;;;2284567;60;1122;-86
2022/09/30 05:43:38;848911.00;2.83;1466.56;77753.00;0.26;135.16;;;;;13.90;1.00;;;;;;2284647;60;1480;-88
2022/09/30 05:46:05;676554.00;2.26;1166.60;0.00;0.00;0.62;;;;;13.70;1.00;;;;;;2284560;60;1566;-87
2022/09/30 05:48:32;611840.00;2.04;1054.67;31802.00;0.11;55.70;;;;;13.90;1.00;;;;;;2284469;60;970;-88
2022/09/30 05:51:06;845950.00;2.82;1461.38;80247.00;0.27;139.46;;;;;14.10;1.00;;;;;;2284373;60;1988;-87
2022/09/30 05:53:39;668036.00;2.23;1151.85;0.00;0.00;0.62;;;;;14.40;1.00;;;;;;2284376;60;1753;-88
2022/09/30 05:56:07;807712.00;2.69;1394.58;59893.00;0.20;104.29;;;;;14.40;1.00;;;;;;2284508;60;1498;-86
2022/09/30 05:58:34;651076.00;2.17;1122.50;0.00;0.00;0.62;;;;;14.30;1.00;;;;;;2284537;60;1568;-89
2022/09/30 06:01:07;613668.00;2.05;1057.83;42999.00;0.14;75.08;;;;;14.60;1.00;;;;;;2284426;60;1542;-88
2022/09/30 06:03:37;518266.00;1.73;893.28;0.00;0.00;0.62;;;;;14.10;1.00;;;;;;2284542;60;1460;-87
2022/09/30 06:06:04;500942.00;1.67;863.45;0.00;0.00;0.62;;;;;14.10;1.00;;;;;;2284534;60;1021;-88
2022/09/30 06:08:32;903869.00;3.01;1562.92;82329.00;0.27;143.06;;;;;13.90;1.00;;;;;;2284576;60;1017;-85
2022/09/30 06:11:00;738981.00;2.46;1274.90;16040.00;0.05;28.41;;;;;13.70;1.00;;;;;;2284251;60;2007;-85
2022/09/30 06:13:28;623004.00;2.08;1073.96;0.00;0.00;0.62;;;;;14.00;1.00;;;;;;2284469;60;1686;-90
2022/09/30 06:15:59;646091.00;2.15;1113.87;25358.00;0.08;44.55;;;;;14.10;1.00;;;;;;2284469;60;1553;-88
2022/09/30 06:18:26;613035.00;2.04;1056.73;0.00;0.00;0.62;;;;;14.00;1.00;;;;;;2284520;60;1384;-88
2022/09/30 06:20:58;763400.00;2.54;1317.37;54740.00;0.18;95.38;;;;;14.20;1.00;;;;;;2284380;60;1469;-88
2022/09/30 06:23:29;751239.00;2.50;1296.21;0.00;0.00;0.62;;;;;14.00;1.00;;;;;;2284308;60;1373;-87
2022/09/30 06:25:56;652555.00;2.18;1125.06;0.00;0.00;0.62;;;;;14.10;1.00;;;;;;2284424;60;1563;-88
2022/09/30 06:28:29;820179.00;2.73;1416.34;0.00;0.00;0.62;;;;;14.10;1.00;;;;;;2284505;60;1064;-87
2022/09/30 06:30:56;770638.00;2.57;1329.96;0.00;0.00;0.62;;;;;14.80;1.00;;;;;;2284356;60;2024;-88
2022/09/30 06:33:26;628508.00;2.10;1083.47;0.00;0.00;0.62;;;;;15.70;1.00;;;;;;2292104;55;3777;-87
2022/09/30 06:38:27;836807.00;2.79;1445.39;0.00;0.00;0.62;;;;;16.60;1.00;;;;;;2290495;60;1425;-87
2022/09/30 06:40:56;561061.00;1.87;967.03;0.00;0.00;0.62;;;;;17.00;1.00;;;;;;2289273;60;1402;-87
2022/09/30 06:43:27;606006.00;2.02;1044.59;0.00;0.00;0.62;;;;;17.20;1.00;;;;;;2289185;60;1343;-86
2022/09/30 06:45:54;428669.00;1.43;739.10;0.00;0.00;0.62;;;;;17.20;1.00;;;;;;2289132;60;1105;-86
2022/09/30 06:48:21;542076.00;1.81;934.30;0.00;0.00;0.62;;;;;17.40;1.00;;;;;;2289288;60;1101;-87
2022/09/30 06:50:52;615257.00;2.05;1060.57;0.00;0.00;0.62;;;;;16.60;1.00;;;;;;2289062;60;1992;-85
2022/09/30 06:53:19;542847.00;1.81;935.63;0.00;0.00;0.62;;;;;16.30;1.00;;;;;;2289208;60;1382;-86
2022/09/30 06:55:46;748438.00;2.49;1291.34;62696.00;0.21;109.14;;;;;16.50;1.00;;;;;;2289115;60;987;-86
2022/09/30 06:58:16;749721.00;2.50;1293.57;75846.00;0.25;131.86;;;;;16.40;1.00;;;;;;2288882;60;2168;-88
2022/09/30 07:00:57;833049.00;2.78;1438.82;132808.00;0.44;230.17;;;;;16.50;1.00;;;;;;2288946;60;1368;-87
2022/09/30 07:03:29;647971.00;2.16;1117.13;64751.00;0.22;112.69;;;;;16.40;1.00;;;;;;2289095;60;1569;-87
2022/09/30 07:05:58;704932.00;2.35;1215.79;23576.00;0.08;41.46;;;;;16.40;1.00;;;;;;2289230;60;1036;-87
2022/09/30 07:08:28;586799.00;1.96;1011.43;0.00;0.00;0.62;;;;;16.60;1.00;;;;;;2289092;60;1535;-86
2022/09/30 07:10:57;785302.00;2.62;1355.50;0.00;0.00;0.62;;;;;16.40;1.00;;;;;;2289035;60;2010;-85
2022/09/30 07:13:24;543088.00;1.81;936.05;0.00;0.00;0.62;;;;;16.60;1.00;;;;;;2288861;60;1516;-86
2022/09/30 07:15:55;606583.00;2.02;1045.59;0.00;0.00;0.62;;;;;16.90;1.00;;;;;;2289150;60;1053;-86
2022/09/30 07:18:22;540949.00;1.80;932.36;0.00;0.00;0.62;;;;;16.90;1.00;;;;;;2288998;60;1434;-86
2022/09/30 07:20:51;839144.00;2.80;1449.48;21813.00;0.07;38.41;;;;;16.40;1.00;;;;;;2289090;60;1538;-88
2022/09/30 07:23:18;810332.00;2.70;1399.15;53642.00;0.18;93.48;;;;;16.60;1.00;;;;;;2289061;60;1343;-86
2022/09/30 07:25:59;502539.00;1.68;866.20;0.00;0.00;0.62;;;;;17.10;1.00;;;;;;2288925;60;956;-87
2022/09/30 07:28:30;760926.00;2.54;1313.06;81102.00;0.27;140.94;;;;;17.10;1.00;;;;;;2289112;60;1050;-87
2022/09/30 07:31:02;677927.00;2.26;1168.98;65277.00;0.22;113.60;;;;;16.80;1.00;;;;;;2288855;60;2004;-88
2022/09/30 07:33:31;942770.00;3.14;1631.37;109838.00;0.37;190.55;;;;;17.00;1.00;;;;;;2288956;60;1427;-87
2022/09/30 07:36:00;741749.00;2.47;1279.71;55324.00;0.18;96.39;;;;;16.70;1.00;;;;;;2289071;60;1061;-86
2022/09/30 07:38:40;652690.00;2.18;1125.29;78546.00;0.26;136.53;;;;;16.90;1.00;;;;;;2289051;60;1100;-87
2022/09/30 07:41:10;1047440.00;3.49;1816.68;63747.00;0.21;110.95;;;;;17.40;1.00;;;;;;2288796;60;1718;-87
2022/09/30 07:43:38;1019906.00;3.40;1767.76;60284.00;0.20;104.97;;;;;17.70;1.00;;;;;;2288938;60;1667;-87
2022/09/30 07:46:09;1036269.00;3.45;1796.82;74731.00;0.25;129.93;;;;;17.80;1.00;;;;;;2289006;60;1409;-86
2022/09/30 07:48:43;1030992.00;3.44;1787.44;114836.00;0.38;199.17;;;;;17.90;1.00;;;;;;2288841;60;1093;-87
2022/09/30 07:51:13;1447924.00;4.83;2545.51;151504.00;0.51;262.40;;;;;18.00;1.00;;;;;;2288953;60;1919;-87
2022/09/30 07:53:41;984945.00;3.28;1705.83;92583.00;0.31;160.77;;;;;17.90;1.00;;;;;;2288868;60;1624;-86
2022/09/30 07:56:09;821166.00;2.74;1418.06;150197.00;0.50;260.15;;;;;17.60;1.00;;;;;;2288940;60;1108;-89
2022/09/30 07:58:37;937994.00;3.13;1622.95;117387.00;0.39;203.57;;;;;17.90;1.00;;;;;;2288992;60;1086;-87
2022/09/30 08:01:05;873036.00;2.91;1508.81;64611.00;0.22;112.45;;;;;18.10;1.00;;;;;;2288733;60;1832;-87
2022/09/30 08:03:37;1043259.00;3.48;1809.24;64878.00;0.22;112.91;;;;;18.20;1.00;;;;;;2288743;60;1344;-87
2022/09/30 08:06:06;914902.00;3.05;1582.31;65350.00;0.22;113.72;;;;;18.20;1.00;;;;;;2288941;60;1078;-87
2022/09/30 08:08:33;487709.00;1.63;840.67;45440.00;0.15;79.30;;;;;18.40;1.00;;;;;;2288976;60;1105;-86
2022/09/30 08:11:01;877430.00;2.92;1516.51;65090.00;0.22;113.28;;;;;18.30;1.00;;;;;;2288905;60;1931;-88
2022/09/30 08:13:28;542441.00;1.81;934.93;80725.00;0.27;140.29;;;;;18.30;1.00;;;;;;2288904;60;1371;-87
2022/09/30 08:15:55;845910.00;2.82;1461.31;59136.00;0.20;102.98;;;;;18.10;1.00;;;;;;2288928;60;919;-86
2022/09/30 08:18:22;867406.00;2.89;1498.94;64569.00;0.22;112.37;;;;;17.50;1.00;;;;;;2288829;60;1552;-87
2022/09/30 08:20:50;837211.00;2.79;1446.10;97580.00;0.33;169.39;;;;;17.10;1.00;;;;;;2288820;60;1029;-87
2022/09/30 08:23:17;761777.00;2.54;1314.54;81811.00;0.27;142.17;;;;;17.20;1.00;;;;;;2288810;60;1292;-87
2022/09/30 08:25:44;761104.00;2.54;1313.37;64924.00;0.22;112.99;;;;;17.40;1.00;;;;;;2288890;60;1093;-86
2022/09/30 08:28:11;710867.00;2.37;1226.09;53268.00;0.18;92.84;;;;;17.50;1.00;;;;;;2288946;60;1116;-86
2022/09/30 08:30:39;773813.00;2.58;1335.49;58371.00;0.19;101.66;;;;;17.30;1.00;;;;;;2288860;60;1993;-87
2022/09/30 08:33:06;794833.00;2.65;1372.11;74409.00;0.25;129.38;;;;;17.20;1.00;;;;;;2288744;60;1370;-87
2022/09/30 08:35:36;765356.00;2.55;1320.77;45956.00;0.15;80.19;;;;;17.10;1.00;;;;;;2288861;60;1473;-88
2022/09/30 08:38:05;909751.00;3.03;1573.25;71309.00;0.24;124.02;;;;;17.40;1.00;;;;;;2288684;60;2223;-87
2022/09/30 08:40:38;596690.00;1.99;1028.51;0.00;0.00;0.62;;;;;17.30;1.00;;;;;;2288916;60;1149;-85
2022/09/30 08:43:26;1907448.00;6.36;3435.98;106838.00;0.36;185.37;;;;;17.50;1.00;;;;;;2288859;60;1472;-87
2022/09/30 08:46:08;920626.00;3.07;1592.38;52449.00;0.17;91.42;;;;;17.00;1.00;;;;;;2288730;60;1014;-86
2022/09/30 08:48:48;806374.00;2.69;1392.24;9863.00;0.03;17.71;;;;;16.80;1.00;;;;;;2288603;60;1459;-87
2022/09/30 08:51:30;781671.00;2.61;1349.18;0.00;0.00;0.62;;;;;17.00;1.00;;;;;;2288671;60;1985;-87
2022/09/30 08:54:05;1113972.00;3.71;1935.43;92607.00;0.31;160.81;;;;;17.20;1.00;;;;;;2288771;60;1409;-87
2022/09/30 08:56:34;972331.00;3.24;1683.53;82746.00;0.28;143.78;;;;;17.40;1.00;;;;;;2288588;60;1529;-87
2022/09/30 08:59:08;721862.00;2.41;1245.17;59212.00;0.20;103.11;;;;;17.30;1.00;;;;;;2288793;60;1038;-86
2022/09/30 09:01:38;812664.00;2.71;1403.22;58985.00;0.20;102.72;;;;;17.50;1.00;;;;;;2288765;60;1551;-86
2022/09/30 09:04:07;744696.00;2.48;1284.84;62338.00;0.21;108.52;;;;;17.30;1.00;;;;;;2288600;60;1362;-87
2022/09/30 09:06:43;664343.00;2.21;1145.46;69698.00;0.23;121.24;;;;;17.40;1.00;;;;;;2288823;60;1073;-88
2022/09/30 09:09:35;662900.00;2.21;1142.96;57553.00;0.19;100.25;;;;;17.40;1.00;;;;;;2288795;60;1045;-85
2022/09/30 09:12:14;799254.00;2.66;1379.82;65828.00;0.22;114.55;;;;;17.70;1.00;;;;;;2288791;60;1915;-86
2022/09/30 09:14:56;847763.00;2.83;1464.55;52257.00;0.17;91.09;;;;;17.90;1.00;;;;;;2288775;60;1011;-88
2022/09/30 09:17:38;945391.00;3.15;1635.99;67537.00;0.23;117.50;;;;;18.00;1.00;;;;;;2288640;60;1014;-88
2022/09/30 09:20:15;885081.00;2.95;1529.93;62911.00;0.21;109.51;;;;;17.90;1.00;;;;;;2288634;60;1038;-86
2022/09/30 09:22:44;649771.00;2.17;1120.24;0.00;0.00;0.62;;;;;17.70;1.00;;;;;;2288588;60;1470;-88
2022/09/30 09:25:16;608549.00;2.03;1048.98;0.00;0.00;0.62;;;;;17.90;1.00;;;;;;2288638;60;1012;-87
2022/09/30 09:27:52;547713.00;1.83;944.02;0.00;0.00;0.62;;;;;17.90;1.00;;;;;;2288653;60;1043;-86
2022/09/30 09:30:21;498543.00;1.66;859.32;0.00;0.00;0.62;;;;;18.10;1.00;;;;;;2303530;55;3730;-87
2022/09/30 09:32:54;754130.00;2.51;1301.24;0.00;0.00;0.62;;;;;18.10;1.00;;;;;;2288364;60;2030;-88
2022/09/30 09:35:37;593387.00;1.98;1022.80;0.00;0.00;0.62;;;;;18.10;1.00;;;;;;2288713;60;1050;-87
2022/09/30 09:38:30;424866.00;1.42;732.56;0.00;0.00;0.62;;;;;18.00;1.00;;;;;;2288713;60;1098;-87
2022/09/30 09:41:16;888185.00;2.96;1535.38;0.00;0.00;0.62;;;;;18.10;1.00;;;;;;2288680;60;884;-86
2022/09/30 09:43:57;847374.00;2.82;1463.87;65902.00;0.22;114.68;;;;;17.90;1.00;;;;;;2288698;60;1387;-85
2022/09/30 09:46:29;492426.00;1.64;848.78;0.00;0.00;0.62;;;;;18.20;1.00;;;;;;2288638;60;2294;-89
2022/09/30 09:49:26;796609.00;2.66;1375.21;0.00;0.00;0.62;;;;;18.30;1.00;;;;;;2288660;60;1138;-88
2022/09/30 09:52:20;845806.00;2.82;1461.13;69471.00;0.23;120.85;;;;;17.80;1.00;;;;;;2288413;60;1994;-86
2022/09/30 09:54:51;639322.00;2.13;1102.17;0.00;0.00;0.62;;;;;17.50;1.00;;;;;;2288652;60;1602;-87
2022/09/30 09:57:31;637262.00;2.12;1098.60;0.00;0.00;0.62;;;;;17.30;1.00;;;;;;2288740;60;1090;-88
2022/09/30 10:00:57;624037.00;2.08;1075.74;0.00;0.00;0.62;;;;;17.20;1.00;;;;;;2288685;60;1003;-88
2022/09/30 10:03:00;474916.00;1.58;818.65;0.00;0.00;0.62;;;;;17.20;1.00;;;;;;2288575;60;1367;-87